sensor_id;sensor_type;location;lat;lon;timestamp;pressure;altitude;pressure_sealevel;temperature;humidity
47763;BME280;33526;42.690;23.322;2023-05-29T00:00:46;94848.38;;;14.36;90.10
47763;BME280;33526;42.690;23.322;2023-05-29T00:03:12;94875.09;;;14.51;90.76
47763;BME280;33526;42.690;23.322;2023-05-29T00:05:38;94841.16;;;14.29;90.75
47763;BME280;33526;42.690;23.322;2023-05-29T00:08:04;94875.28;;;14.42;90.74
47763;BME280;33526;42.690;23.322;2023-05-29T00:10:30;94840.38;;;14.23;91.05
47763;BME280;33526;42.690;23.322;2023-05-29T00:12:57;94838.78;;;14.16;91.78
47763;BME280;33526;42.690;23.322;2023-05-29T00:15:22;94855.22;;;14.29;92.37
47763;BME280;33526;42.690;23.322;2023-05-29T00:17:48;94846.00;;;14.23;91.91
47763;BME280;33526;42.690;23.322;2023-05-29T00:20:14;94856.50;;;14.28;92.07
47763;BME280;33526;42.690;23.322;2023-05-29T00:22:40;94863.88;;;14.25;92.10
47763;BME280;33526;42.690;23.322;2023-05-29T00:25:06;94872.38;;;14.31;92.52
47763;BME280;33526;42.690;23.322;2023-05-29T00:27:32;94870.72;;;14.19;92.69
47763;BME280;33526;42.690;23.322;2023-05-29T00:29:59;94878.16;;;14.22;92.83
47763;BME280;33526;42.690;23.322;2023-05-29T00:32:25;94857.28;;;14.02;93.29
47763;BME280;33526;42.690;23.322;2023-05-29T00:34:50;94835.97;;;13.90;93.48
47763;BME280;33526;42.690;23.322;2023-05-29T00:37:16;94842.88;;;13.89;93.48
47763;BME280;33526;42.690;23.322;2023-05-29T00:39:42;94863.75;;;14.08;94.20
47763;BME280;33526;42.690;23.322;2023-05-29T00:42:07;94862.41;;;14.04;94.18
47763;BME280;33526;42.690;23.322;2023-05-29T00:44:33;94863.13;;;13.99;94.70
47763;BME280;33526;42.690;23.322;2023-05-29T00:46:58;94809.41;;;13.65;94.94
47763;BME280;33526;42.690;23.322;2023-05-29T00:49:24;94868.69;;;13.93;94.91
47763;BME280;33526;42.690;23.322;2023-05-29T00:51:51;94859.47;;;13.87;95.22
47763;BME280;33526;42.690;23.322;2023-05-29T00:54:20;94842.47;;;13.75;95.62
47763;BME280;33526;42.690;23.322;2023-05-29T00:56:47;94833.66;;;13.62;96.01
47763;BME280;33526;42.690;23.322;2023-05-29T00:59:12;94850.09;;;13.69;96.41
47763;BME280;33526;42.690;23.322;2023-05-29T01:01:38;94835.72;;;13.62;96.14
47763;BME280;33526;42.690;23.322;2023-05-29T01:04:05;94841.88;;;13.66;95.76
47763;BME280;33526;42.690;23.322;2023-05-29T01:06:32;94842.63;;;13.66;96.61
47763;BME280;33526;42.690;23.322;2023-05-29T01:08:57;94849.59;;;13.71;96.55
47763;BME280;33526;42.690;23.322;2023-05-29T01:17:07;94860.22;;;13.87;96.41
47763;BME280;33526;42.690;23.322;2023-05-29T01:22:46;94869.59;;;13.79;96.64
47763;BME280;33526;42.690;23.322;2023-05-29T01:25:28;94861.88;;;13.73;96.75
47763;BME280;33526;42.690;23.322;2023-05-29T01:27:55;94860.56;;;13.69;97.00
47763;BME280;33526;42.690;23.322;2023-05-29T01:30:23;94874.66;;;13.74;97.04
47763;BME280;33526;42.690;23.322;2023-05-29T01:32:50;94837.63;;;13.50;96.86
47763;BME280;33526;42.690;23.322;2023-05-29T01:35:16;94820.88;;;13.35;97.32
47763;BME280;33526;42.690;23.322;2023-05-29T01:37:42;94837.13;;;13.51;97.81
47763;BME280;33526;42.690;23.322;2023-05-29T01:40:08;94862.56;;;13.68;97.95
47763;BME280;33526;42.690;23.322;2023-05-29T01:42:34;94825.63;;;13.49;97.57
47763;BME280;33526;42.690;23.322;2023-05-29T01:45:00;94852.19;;;13.74;97.46
47763;BME280;33526;42.690;23.322;2023-05-29T01:47:27;94851.78;;;13.61;96.66
47763;BME280;33526;42.690;23.322;2023-05-29T01:49:53;94824.34;;;13.50;96.63
47763;BME280;33526;42.690;23.322;2023-05-29T01:52:19;94866.78;;;13.79;96.67
47763;BME280;33526;42.690;23.322;2023-05-29T01:54:45;94855.16;;;13.65;97.22
47763;BME280;33526;42.690;23.322;2023-05-29T01:57:11;94870.78;;;13.72;97.16
47763;BME280;33526;42.690;23.322;2023-05-29T01:59:37;94852.63;;;13.67;97.13
47763;BME280;33526;42.690;23.322;2023-05-29T02:02:07;94856.03;;;13.51;97.60
47763;BME280;33526;42.690;23.322;2023-05-29T02:04:33;94841.00;;;13.33;98.03
47763;BME280;33526;42.690;23.322;2023-05-29T02:06:58;94844.22;;;13.26;98.37
47763;BME280;33526;42.690;23.322;2023-05-29T02:09:24;94866.06;;;13.37;99.06
47763;BME280;33526;42.690;23.322;2023-05-29T02:11:50;94816.72;;;13.10;99.38
47763;BME280;33526;42.690;23.322;2023-05-29T02:14:15;94834.66;;;13.18;99.47
47763;BME280;33526;42.690;23.322;2023-05-29T02:16:41;94786.56;;;12.84;99.58
47763;BME280;33526;42.690;23.322;2023-05-29T02:19:09;94850.09;;;13.28;99.71
47763;BME280;33526;42.690;23.322;2023-05-29T02:21:38;94851.66;;;13.29;99.46
47763;BME280;33526;42.690;23.322;2023-05-29T02:24:05;94836.09;;;13.08;99.83
47763;BME280;33526;42.690;23.322;2023-05-29T02:26:31;94853.25;;;13.15;100.00
47763;BME280;33526;42.690;23.322;2023-05-29T02:28:57;94835.09;;;13.11;100.00
47763;BME280;33526;42.690;23.322;2023-05-29T02:31:22;94861.00;;;13.20;100.00
47763;BME280;33526;42.690;23.322;2023-05-29T02:33:47;94842.53;;;13.14;100.00
47763;BME280;33526;42.690;23.322;2023-05-29T02:36:13;94863.59;;;13.24;100.00
47763;BME280;33526;42.690;23.322;2023-05-29T02:38:39;94840.13;;;13.07;100.00
47763;BME280;33526;42.690;23.322;2023-05-29T02:41:04;94837.81;;;13.05;100.00
47763;BME280;33526;42.690;23.322;2023-05-29T02:43:31;94815.25;;;12.94;100.00
47763;BME280;33526;42.690;23.322;2023-05-29T02:45:58;94856.69;;;13.25;100.00
47763;BME280;33526;42.690;23.322;2023-05-29T02:48:23;94844.34;;;13.17;100.00
47763;BME280;33526;42.690;23.322;2023-05-29T02:50:49;94868.88;;;13.37;99.72
47763;BME280;33526;42.690;23.322;2023-05-29T02:53:15;94837.34;;;13.27;99.81
47763;BME280;33526;42.690;23.322;2023-05-29T02:55:40;94861.47;;;13.39;99.73
47763;BME280;33526;42.690;23.322;2023-05-29T02:58:06;94858.25;;;13.47;99.63
47763;BME280;33526;42.690;23.322;2023-05-29T03:00:31;94857.00;;;13.48;99.19
47763;BME280;33526;42.690;23.322;2023-05-29T03:02:56;94835.19;;;13.37;98.97
47763;BME280;33526;42.690;23.322;2023-05-29T03:05:22;94864.56;;;13.62;98.72
47763;BME280;33526;42.690;23.322;2023-05-29T03:07:47;94834.81;;;13.50;98.61
47763;BME280;33526;42.690;23.322;2023-05-29T03:10:13;94861.31;;;13.69;97.44
47763;BME280;33526;42.690;23.322;2023-05-29T03:12:42;94869.03;;;13.74;97.21
47763;BME280;33526;42.690;23.322;2023-05-29T03:15:09;94852.88;;;13.69;96.92
47763;BME280;33526;42.690;23.322;2023-05-29T03:17:35;94824.84;;;13.49;97.17
47763;BME280;33526;42.690;23.322;2023-05-29T03:20:03;94849.19;;;13.57;97.38
47763;BME280;33526;42.690;23.322;2023-05-29T03:22:34;94833.13;;;13.58;96.48
47763;BME280;33526;42.690;23.322;2023-05-29T03:25:02;94825.84;;;13.46;96.59
47763;BME280;33526;42.690;23.322;2023-05-29T03:27:27;94876.63;;;13.68;96.95
47763;BME280;33526;42.690;23.322;2023-05-29T03:29:54;94864.72;;;13.53;97.44
47763;BME280;33526;42.690;23.322;2023-05-29T03:32:20;94869.63;;;13.58;97.49
47763;BME280;33526;42.690;23.322;2023-05-29T03:34:45;94879.78;;;13.76;97.17
47763;BME280;33526;42.690;23.322;2023-05-29T03:37:11;94859.63;;;13.77;96.44
47763;BME280;33526;42.690;23.322;2023-05-29T03:39:37;94851.19;;;13.77;95.63
47763;BME280;33526;42.690;23.322;2023-05-29T03:42:02;94882.16;;;14.09;95.23
47763;BME280;33526;42.690;23.322;2023-05-29T03:44:28;94888.03;;;14.11;94.54
47763;BME280;33526;42.690;23.322;2023-05-29T03:46:54;94876.53;;;14.09;94.33
47763;BME280;33526;42.690;23.322;2023-05-29T03:49:19;94832.88;;;13.88;93.68
47763;BME280;33526;42.690;23.322;2023-05-29T03:51:45;94884.91;;;14.30;92.65
47763;BME280;33526;42.690;23.322;2023-05-29T03:54:10;94895.69;;;14.37;92.49
47763;BME280;33526;42.690;23.322;2023-05-29T03:56:36;94896.69;;;14.34;92.67
47763;BME280;33526;42.690;23.322;2023-05-29T03:59:02;94840.16;;;14.00;91.65
47763;BME280;33526;42.690;23.322;2023-05-29T04:01:28;94882.34;;;14.32;91.50
47763;BME280;33526;42.690;23.322;2023-05-29T04:03:54;94891.75;;;14.23;92.43
47763;BME280;33526;42.690;23.322;2023-05-29T04:06:19;94912.56;;;14.37;92.56
47763;BME280;33526;42.690;23.322;2023-05-29T04:08:45;94897.44;;;14.34;92.40
47763;BME280;33526;42.690;23.322;2023-05-29T04:11:10;94909.09;;;14.48;92.02
47763;BME280;33526;42.690;23.322;2023-05-29T04:13:37;94899.06;;;14.41;91.86
47763;BME280;33526;42.690;23.322;2023-05-29T04:16:03;94906.31;;;14.53;91.74
47763;BME280;33526;42.690;23.322;2023-05-29T04:18:28;94904.38;;;14.65;90.63
47763;BME280;33526;42.690;23.322;2023-05-29T04:20:54;94921.44;;;14.88;90.43
47763;BME280;33526;42.690;23.322;2023-05-29T04:23:20;94904.00;;;14.84;89.07
47763;BME280;33526;42.690;23.322;2023-05-29T04:25:46;94913.81;;;15.00;88.34
47763;BME280;33526;42.690;23.322;2023-05-29T04:28:11;94925.44;;;15.13;87.39
47763;BME280;33526;42.690;23.322;2023-05-29T04:30:37;94907.00;;;15.12;87.59
47763;BME280;33526;42.690;23.322;2023-05-29T04:33:05;94889.16;;;15.26;86.58
47763;BME280;33526;42.690;23.322;2023-05-29T04:35:30;94891.00;;;15.35;85.18
47763;BME280;33526;42.690;23.322;2023-05-29T04:37:56;94918.53;;;15.68;84.79
47763;BME280;33526;42.690;23.322;2023-05-29T04:40:22;94854.59;;;15.26;84.07
47763;BME280;33526;42.690;23.322;2023-05-29T04:42:48;94913.97;;;15.77;83.67
47763;BME280;33526;42.690;23.322;2023-05-29T04:45:13;94890.03;;;15.55;83.36
47763;BME280;33526;42.690;23.322;2023-05-29T04:47:39;94920.13;;;15.81;83.67
47763;BME280;33526;42.690;23.322;2023-05-29T04:50:16;94931.69;;;15.83;83.21
47763;BME280;33526;42.690;23.322;2023-05-29T04:52:41;94935.53;;;15.80;84.01
47763;BME280;33526;42.690;23.322;2023-05-29T04:55:07;94933.44;;;15.75;84.65
47763;BME280;33526;42.690;23.322;2023-05-29T04:57:32;94938.78;;;15.73;85.18
47763;BME280;33526;42.690;23.322;2023-05-29T04:59:58;94928.69;;;15.49;85.69
47763;BME280;33526;42.690;23.322;2023-05-29T05:02:23;94932.22;;;15.33;86.85
47763;BME280;33526;42.690;23.322;2023-05-29T05:04:49;94921.88;;;15.18;87.84
47763;BME280;33526;42.690;23.322;2023-05-29T05:07:15;94951.72;;;15.42;87.23
47763;BME280;33526;42.690;23.322;2023-05-29T05:09:41;94889.56;;;15.08;87.04
47763;BME280;33526;42.690;23.322;2023-05-29T05:12:07;94960.69;;;15.46;86.72
47763;BME280;33526;42.690;23.322;2023-05-29T05:14:33;94946.56;;;15.35;86.49
47763;BME280;33526;42.690;23.322;2023-05-29T05:16:58;94961.19;;;15.44;86.18
47763;BME280;33526;42.690;23.322;2023-05-29T05:19:24;94968.09;;;15.38;86.98
47763;BME280;33526;42.690;23.322;2023-05-29T05:21:49;94923.78;;;15.38;86.13
47763;BME280;33526;42.690;23.322;2023-05-29T05:24:14;94962.81;;;15.62;85.17
47763;BME280;33526;42.690;23.322;2023-05-29T05:26:40;94964.22;;;15.78;84.69
47763;BME280;33526;42.690;23.322;2023-05-29T05:29:05;94947.25;;;15.73;83.96
47763;BME280;33526;42.690;23.322;2023-05-29T05:31:31;94970.59;;;15.79;84.14
47763;BME280;33526;42.690;23.322;2023-05-29T05:33:56;94918.44;;;15.46;83.73
47763;BME280;33526;42.690;23.322;2023-05-29T05:36:22;94965.41;;;15.72;84.32
47763;BME280;33526;42.690;23.322;2023-05-29T05:38:48;94942.63;;;15.70;83.28
47763;BME280;33526;42.690;23.322;2023-05-29T05:41:13;94935.00;;;15.81;83.20
47763;BME280;33526;42.690;23.322;2023-05-29T05:43:39;94960.84;;;16.57;80.78
47763;BME280;33526;42.690;23.322;2023-05-29T05:46:04;94926.19;;;17.18;75.28
47763;BME280;33526;42.690;23.322;2023-05-29T05:48:30;94968.44;;;17.86;74.15
47763;BME280;33526;42.690;23.322;2023-05-29T05:50:55;94953.72;;;17.99;72.41
47763;BME280;33526;42.690;23.322;2023-05-29T05:53:21;94935.47;;;17.94;71.77
47763;BME280;33526;42.690;23.322;2023-05-29T05:55:46;94966.88;;;18.38;71.59
47763;BME280;33526;42.690;23.322;2023-05-29T05:58:12;94941.06;;;18.53;69.87
47763;BME280;33526;42.690;23.322;2023-05-29T06:00:39;94952.94;;;17.99;72.22
47763;BME280;33526;42.690;23.322;2023-05-29T06:03:06;94970.06;;;19.01;70.13
47763;BME280;33526;42.690;23.322;2023-05-29T06:05:31;94962.91;;;19.98;65.95
47763;BME280;33526;42.690;23.322;2023-05-29T06:07:57;94974.59;;;20.33;64.21
47763;BME280;33526;42.690;23.322;2023-05-29T06:10:22;94949.38;;;20.10;64.08
47763;BME280;33526;42.690;23.322;2023-05-29T06:12:48;94953.00;;;19.86;64.43
47763;BME280;33526;42.690;23.322;2023-05-29T06:15:13;94943.44;;;19.89;64.70
47763;BME280;33526;42.690;23.322;2023-05-29T06:17:39;94964.75;;;19.71;65.02
47763;BME280;33526;42.690;23.322;2023-05-29T06:20:05;94965.56;;;20.15;63.80
47763;BME280;33526;42.690;23.322;2023-05-29T06:22:36;94965.63;;;20.29;63.06
47763;BME280;33526;42.690;23.322;2023-05-29T06:25:01;94935.09;;;19.47;64.04
47763;BME280;33526;42.690;23.322;2023-05-29T06:27:26;94967.13;;;19.67;64.89
47763;BME280;33526;42.690;23.322;2023-05-29T06:29:52;94973.19;;;18.97;66.59
47763;BME280;33526;42.690;23.322;2023-05-29T06:32:18;94943.94;;;18.42;68.88
47763;BME280;33526;42.690;23.322;2023-05-29T06:34:43;94955.50;;;17.96;70.54
47763;BME280;33526;42.690;23.322;2023-05-29T06:37:08;94975.28;;;18.02;71.22
47763;BME280;33526;42.690;23.322;2023-05-29T06:39:34;94965.47;;;18.14;71.16
47763;BME280;33526;42.690;23.322;2023-05-29T06:41:59;94961.84;;;18.20;70.36
47763;BME280;33526;42.690;23.322;2023-05-29T06:44:26;94948.00;;;18.10;70.78
47763;BME280;33526;42.690;23.322;2023-05-29T06:46:51;94967.44;;;17.67;73.00
47763;BME280;33526;42.690;23.322;2023-05-29T06:49:17;94957.00;;;18.09;72.04
47763;BME280;33526;42.690;23.322;2023-05-29T06:51:43;94975.53;;;18.10;71.88
47763;BME280;33526;42.690;23.322;2023-05-29T06:54:08;94911.72;;;17.50;72.34
47763;BME280;33526;42.690;23.322;2023-05-29T06:56:34;94971.53;;;18.36;72.06
47763;BME280;33526;42.690;23.322;2023-05-29T06:58:59;94958.44;;;18.68;69.70
47763;BME280;33526;42.690;23.322;2023-05-29T07:01:25;94943.94;;;18.78;69.15
47763;BME280;33526;42.690;23.322;2023-05-29T07:03:53;94957.13;;;18.75;69.66
47763;BME280;33526;42.690;23.322;2023-05-29T07:06:19;94952.63;;;18.13;70.50
47763;BME280;33526;42.690;23.322;2023-05-29T07:08:45;94966.34;;;17.81;72.51
47763;BME280;33526;42.690;23.322;2023-05-29T07:11:12;94942.31;;;18.16;70.54
47763;BME280;33526;42.690;23.322;2023-05-29T07:13:37;94952.44;;;18.42;69.63
47763;BME280;33526;42.690;23.322;2023-05-29T07:16:03;94971.69;;;18.49;70.21
47763;BME280;33526;42.690;23.322;2023-05-29T07:18:28;94959.25;;;18.63;69.19
47763;BME280;33526;42.690;23.322;2023-05-29T07:20:56;94944.03;;;18.30;69.42
47763;BME280;33526;42.690;23.322;2023-05-29T07:23:21;94925.19;;;17.91;71.30
47763;BME280;33526;42.690;23.322;2023-05-29T07:25:47;94946.69;;;18.17;70.43
47763;BME280;33526;42.690;23.322;2023-05-29T07:28:13;94968.09;;;18.01;72.24
47763;BME280;33526;42.690;23.322;2023-05-29T07:30:38;94980.38;;;18.09;72.30
47763;BME280;33526;42.690;23.322;2023-05-29T07:33:04;94947.81;;;17.91;72.03
47763;BME280;33526;42.690;23.322;2023-05-29T07:35:30;94967.53;;;18.14;72.08
47763;BME280;33526;42.690;23.322;2023-05-29T07:37:59;94961.84;;;18.61;70.91
47763;BME280;33526;42.690;23.322;2023-05-29T07:40:25;94973.16;;;18.61;70.55
47763;BME280;33526;42.690;23.322;2023-05-29T07:42:50;94908.19;;;18.03;71.09
47763;BME280;33526;42.690;23.322;2023-05-29T07:45:16;94929.28;;;18.43;69.61
47763;BME280;33526;42.690;23.322;2023-05-29T07:47:43;94936.56;;;18.33;70.19
47763;BME280;33526;42.690;23.322;2023-05-29T07:50:08;94936.03;;;18.70;69.07
47763;BME280;33526;42.690;23.322;2023-05-29T07:52:34;94972.13;;;18.64;69.12
47763;BME280;33526;42.690;23.322;2023-05-29T07:55:01;94952.34;;;18.59;68.66
47763;BME280;33526;42.690;23.322;2023-05-29T07:57:27;94937.56;;;18.71;68.44
47763;BME280;33526;42.690;23.322;2023-05-29T07:59:53;94928.38;;;18.96;65.80
47763;BME280;33526;42.690;23.322;2023-05-29T08:02:19;94964.63;;;19.33;65.93
47763;BME280;33526;42.690;23.322;2023-05-29T08:04:44;94948.31;;;19.15;65.84
47763;BME280;33526;42.690;23.322;2023-05-29T08:07:10;94955.25;;;18.89;66.04
47763;BME280;33526;42.690;23.322;2023-05-29T08:09:35;94953.69;;;19.18;65.60
47763;BME280;33526;42.690;23.322;2023-05-29T08:12:01;94950.03;;;19.73;64.41
47763;BME280;33526;42.690;23.322;2023-05-29T08:14:27;94948.34;;;19.64;64.39
47763;BME280;33526;42.690;23.322;2023-05-29T08:16:52;94968.94;;;20.14;63.02
47763;BME280;33526;42.690;23.322;2023-05-29T08:19:18;94929.56;;;19.61;63.80
47763;BME280;33526;42.690;23.322;2023-05-29T08:21:43;94955.06;;;19.36;65.20
47763;BME280;33526;42.690;23.322;2023-05-29T08:24:09;94946.00;;;18.83;65.63
47763;BME280;33526;42.690;23.322;2023-05-29T08:26:37;94949.94;;;19.35;64.71
47763;BME280;33526;42.690;23.322;2023-05-29T08:29:03;94941.50;;;19.54;63.99
47763;BME280;33526;42.690;23.322;2023-05-29T08:31:29;94923.75;;;19.23;63.22
47763;BME280;33526;42.690;23.322;2023-05-29T08:33:55;94966.25;;;20.02;62.08
47763;BME280;33526;42.690;23.322;2023-05-29T08:36:21;94966.16;;;20.27;59.69
47763;BME280;33526;42.690;23.322;2023-05-29T08:38:50;94910.00;;;20.39;59.08
47763;BME280;33526;42.690;23.322;2023-05-29T08:41:21;94940.25;;;20.17;59.72
47763;BME280;33526;42.690;23.322;2023-05-29T08:43:48;94939.00;;;20.13;59.51
47763;BME280;33526;42.690;23.322;2023-05-29T08:46:15;94962.25;;;20.11;59.97
47763;BME280;33526;42.690;23.322;2023-05-29T08:48:47;94930.25;;;19.67;60.76
47763;BME280;33526;42.690;23.322;2023-05-29T08:51:13;94910.41;;;19.67;60.39
47763;BME280;33526;42.690;23.322;2023-05-29T08:53:39;94944.38;;;20.16;59.39
47763;BME280;33526;42.690;23.322;2023-05-29T08:56:05;94944.75;;;20.45;57.88
47763;BME280;33526;42.690;23.322;2023-05-29T08:58:31;94950.69;;;20.66;56.64
47763;BME280;33526;42.690;23.322;2023-05-29T09:00:57;94913.38;;;20.18;56.91
47763;BME280;33526;42.690;23.322;2023-05-29T09:03:22;94941.63;;;20.30;57.53
47763;BME280;33526;42.690;23.322;2023-05-29T09:05:48;94940.53;;;20.52;56.11
47763;BME280;33526;42.690;23.322;2023-05-29T09:08:13;94901.28;;;20.37;55.78
47763;BME280;33526;42.690;23.322;2023-05-29T09:10:44;94939.84;;;20.84;55.89
47763;BME280;33526;42.690;23.322;2023-05-29T09:13:10;94932.72;;;20.77;54.34
47763;BME280;33526;42.690;23.322;2023-05-29T09:15:36;94906.28;;;20.82;53.53
47763;BME280;33526;42.690;23.322;2023-05-29T09:18:04;94926.47;;;21.11;53.26
47763;BME280;33526;42.690;23.322;2023-05-29T09:20:30;94913.94;;;21.33;52.50
47763;BME280;33526;42.690;23.322;2023-05-29T09:23:03;94921.34;;;21.23;52.66
47763;BME280;33526;42.690;23.322;2023-05-29T09:25:32;94923.22;;;21.20;52.98
47763;BME280;33526;42.690;23.322;2023-05-29T09:28:05;94906.69;;;20.73;53.94
47763;BME280;33526;42.690;23.322;2023-05-29T09:33:04;94902.34;;;20.34;56.25
47763;BME280;33526;42.690;23.322;2023-05-29T09:38:06;94898.84;;;20.28;56.43
47763;BME280;33526;42.690;23.322;2023-05-29T09:40:35;94874.81;;;20.29;55.97
47763;BME280;33526;42.690;23.322;2023-05-29T09:43:11;94897.84;;;20.57;54.70
47763;BME280;33526;42.690;23.322;2023-05-29T09:45:41;94886.81;;;20.73;54.86
47763;BME280;33526;42.690;23.322;2023-05-29T09:48:07;94901.22;;;21.20;53.55
47763;BME280;33526;42.690;23.322;2023-05-29T09:50:34;94870.72;;;21.08;52.86
47763;BME280;33526;42.690;23.322;2023-05-29T09:53:00;94893.31;;;21.46;52.66
47763;BME280;33526;42.690;23.322;2023-05-29T09:55:27;94856.94;;;20.98;53.48
47763;BME280;33526;42.690;23.322;2023-05-29T09:57:55;94864.16;;;21.26;52.22
47763;BME280;33526;42.690;23.322;2023-05-29T10:00:21;94851.72;;;21.29;52.30
47763;BME280;33526;42.690;23.322;2023-05-29T10:02:50;94884.53;;;21.57;53.36
47763;BME280;33526;42.690;23.322;2023-05-29T10:05:16;94883.47;;;21.73;52.31
47763;BME280;33526;42.690;23.322;2023-05-29T10:07:46;94878.22;;;21.77;51.21
47763;BME280;33526;42.690;23.322;2023-05-29T10:10:18;94852.06;;;21.66;51.82
47763;BME280;33526;42.690;23.322;2023-05-29T10:12:48;94895.50;;;21.66;50.61
47763;BME280;33526;42.690;23.322;2023-05-29T10:15:16;94880.13;;;21.43;52.21
47763;BME280;33526;42.690;23.322;2023-05-29T10:17:51;94880.38;;;21.45;53.12
47763;BME280;33526;42.690;23.322;2023-05-29T10:20:20;94883.91;;;21.77;52.73
47763;BME280;33526;42.690;23.322;2023-05-29T10:22:49;94816.94;;;21.36;51.48
47763;BME280;33526;42.690;23.322;2023-05-29T10:25:19;94865.97;;;21.56;51.40
47763;BME280;33526;42.690;23.322;2023-05-29T10:27:47;94865.75;;;21.54;50.87
47763;BME280;33526;42.690;23.322;2023-05-29T10:30:20;94826.47;;;21.26;50.06
47763;BME280;33526;42.690;23.322;2023-05-29T10:35:27;94863.31;;;21.71;50.02
47763;BME280;33526;42.690;23.322;2023-05-29T10:38:13;94858.03;;;22.02;49.78
47763;BME280;33526;42.690;23.322;2023-05-29T10:40:44;94847.66;;;21.78;48.59
47763;BME280;33526;42.690;23.322;2023-05-29T10:43:33;94871.53;;;21.88;48.42
47763;BME280;33526;42.690;23.322;2023-05-29T10:46:00;94855.13;;;21.81;48.97
47763;BME280;33526;42.690;23.322;2023-05-29T10:50:57;94867.34;;;21.89;49.49
47763;BME280;33526;42.690;23.322;2023-05-29T10:53:24;94845.16;;;21.74;49.85
47763;BME280;33526;42.690;23.322;2023-05-29T10:55:54;94852.47;;;21.83;49.70
47763;BME280;33526;42.690;23.322;2023-05-29T11:00:45;94845.03;;;21.13;51.18
47763;BME280;33526;42.690;23.322;2023-05-29T11:03:21;94844.16;;;21.05;50.85
47763;BME280;33526;42.690;23.322;2023-05-29T11:06:06;94839.13;;;20.98;50.80
47763;BME280;33526;42.690;23.322;2023-05-29T11:08:43;94843.59;;;20.93;50.47
47763;BME280;33526;42.690;23.322;2023-05-29T11:11:16;94829.63;;;21.22;51.17
47763;BME280;33526;42.690;23.322;2023-05-29T11:14:00;94805.25;;;21.13;50.04
47763;BME280;33526;42.690;23.322;2023-05-29T11:18:56;94830.63;;;21.65;50.47
47763;BME280;33526;42.690;23.322;2023-05-29T11:23:50;94835.28;;;22.02;50.12
47763;BME280;33526;42.690;23.322;2023-05-29T11:26:16;94815.97;;;22.08;49.97
47763;BME280;33526;42.690;23.322;2023-05-29T11:28:42;94801.81;;;22.29;49.79
47763;BME280;33526;42.690;23.322;2023-05-29T11:31:09;94803.69;;;22.69;48.62
47763;BME280;33526;42.690;23.322;2023-05-29T11:33:41;94802.56;;;22.72;46.14
47763;BME280;33526;42.690;23.322;2023-05-29T11:36:11;94793.41;;;22.87;47.15
47763;BME280;33526;42.690;23.322;2023-05-29T11:38:36;94780.94;;;22.98;45.70
47763;BME280;33526;42.690;23.322;2023-05-29T11:41:02;94822.19;;;23.54;44.39
47763;BME280;33526;42.690;23.322;2023-05-29T11:43:28;94798.63;;;23.61;44.10
47763;BME280;33526;42.690;23.322;2023-05-29T11:45:54;94787.28;;;23.77;46.08
47763;BME280;33526;42.690;23.322;2023-05-29T11:48:19;94804.94;;;24.12;45.88
47763;BME280;33526;42.690;23.322;2023-05-29T11:50:45;94813.16;;;24.23;45.24
47763;BME280;33526;42.690;23.322;2023-05-29T11:53:11;94768.09;;;23.41;44.51
47763;BME280;33526;42.690;23.322;2023-05-29T11:55:37;94814.66;;;23.36;45.32
47763;BME280;33526;42.690;23.322;2023-05-29T11:58:03;94821.59;;;22.77;46.55
47763;BME280;33526;42.690;23.322;2023-05-29T12:00:33;94812.84;;;22.75;46.54
47763;BME280;33526;42.690;23.322;2023-05-29T12:03:00;94813.75;;;22.70;48.46
47763;BME280;33526;42.690;23.322;2023-05-29T12:05:30;94814.44;;;22.63;49.33
47763;BME280;33526;42.690;23.322;2023-05-29T12:07:56;94806.31;;;22.67;50.65
47763;BME280;33526;42.690;23.322;2023-05-29T12:10:23;94735.66;;;22.02;52.02
47763;BME280;33526;42.690;23.322;2023-05-29T12:12:58;94832.63;;;22.04;54.25
47763;BME280;33526;42.690;23.322;2023-05-29T12:15:25;94835.09;;;21.60;57.18
47763;BME280;33526;42.690;23.322;2023-05-29T12:17:51;94845.78;;;21.14;62.27
47763;BME280;33526;42.690;23.322;2023-05-29T12:20:18;94854.66;;;20.13;71.49
47763;BME280;33526;42.690;23.322;2023-05-29T12:22:45;94838.34;;;19.57;77.66
47763;BME280;33526;42.690;23.322;2023-05-29T12:27:42;94811.34;;;17.85;81.65
47763;BME280;33526;42.690;23.322;2023-05-29T12:30:12;94800.75;;;17.44;83.67
47763;BME280;33526;42.690;23.322;2023-05-29T12:32:47;94799.03;;;17.30;79.87
47763;BME280;33526;42.690;23.322;2023-05-29T12:35:14;94883.44;;;18.09;84.59
47763;BME280;33526;42.690;23.322;2023-05-29T12:37:48;94852.97;;;17.85;88.99
47763;BME280;33526;42.690;23.322;2023-05-29T12:40:24;94884.25;;;17.45;94.01
47763;BME280;33526;42.690;23.322;2023-05-29T12:43:09;94881.03;;;17.02;99.40
47763;BME280;33526;42.690;23.322;2023-05-29T12:45:34;94874.13;;;16.86;100.00
47763;BME280;33526;42.690;23.322;2023-05-29T12:48:01;94863.84;;;16.71;100.00
47763;BME280;33526;42.690;23.322;2023-05-29T12:50:35;94862.59;;;16.84;100.00
47763;BME280;33526;42.690;23.322;2023-05-29T12:53:07;94838.16;;;16.92;100.00
47763;BME280;33526;42.690;23.322;2023-05-29T12:55:43;94866.25;;;17.43;98.71
47763;BME280;33526;42.690;23.322;2023-05-29T12:58:14;94860.78;;;17.67;97.70
47763;BME280;33526;42.690;23.322;2023-05-29T13:00:42;94873.28;;;17.83;95.64
47763;BME280;33526;42.690;23.322;2023-05-29T13:03:08;94862.66;;;18.06;95.35
47763;BME280;33526;42.690;23.322;2023-05-29T13:05:36;94833.53;;;18.17;89.20
47763;BME280;33526;42.690;23.322;2023-05-29T13:08:02;94843.97;;;18.58;88.27
47763;BME280;33526;42.690;23.322;2023-05-29T13:10:30;94843.38;;;18.71;84.70
47763;BME280;33526;42.690;23.322;2023-05-29T13:12:55;94854.16;;;18.72;76.75
47763;BME280;33526;42.690;23.322;2023-05-29T13:15:24;94864.25;;;18.98;76.59
47763;BME280;33526;42.690;23.322;2023-05-29T13:17:52;94861.41;;;19.23;76.72